Terminal Aerodrome Forecast
Issued by NWS Mt. Holly, NJ

Home | Current Version | Previous Version | Text Only | Print | Product List | Glossary On
Versions: 1 2 3 4 5 6 7 8 9 10 11 12
548
FTUS41 KPHI 221127
TAFABE
TAF
KABE 221127Z 2212/2312 00000KT P6SM SCT250
     FM221600 16004KT P6SM BKN250
     FM230600 VRB02KT 2SM BR BKN250
     FM231100 VRB02KT 6SM BR SCT010=

USA.gov is the U.S. government's official web portal to all federal, state and local government web resources and services.